Rumford, Maine
Current Conditions -  °F | °C
As of 3:52 PM on Tuesday 27 Jan 2015 (Local Time) from KBML Reporting Station
Light Snow Light Snow  
Wind Chill: -3°   Ceiling: 2300
Heat Index: 11°   Visibility: 1.2mi
Dew Point:   Wind: 12mph
Humidity: 70%   Direction: 350°N
Pressure: 29.65"   Gusts: NA
Location:  44.55°N, 70.55°W
Report Text: KBML 272052Z AUTO 35010KT 1 1/4SM -SN OVC023 M12/M16 A2965 RMK AO2 SLP066 P0000 60000 T11171161 55002
Loading
Personal Weather Stations






























Interactive Weather Map New forecast layout! Learn more

10-Day Weather Forecast

Advertisements
Track Severe Weather on mobile